Flugplatz Hengsen-Opherdicke (UL)

Hier findest Du alle Informationen zum Flugplatz Hengsen-Opherdicke (UL).

Informationen für Piloten zum Flugplatz Hengsen-Opherdicke

Hier findest Du alle relevanten Informationen, die Du als Pilot benötigst, um Hengsen-Opherdicke anzufliegen.

Flugplatz: Hengsen-Opherdicke ICAO-Code: UL Flugplatz
Frequenz Turm: 123,350 Mhz GAFOR Gebiet: -
Frequenz Ground: 123,350 Mhz Mogas: nein
Platzrunde: S 1400 ft Landegebühr: 3,5 €
Platzhöhe: - Sunrise: 06:09 Uhr UTC
Pisten: 07/25 - 580 m x 30 m, GRAS Sunset: 16:17 Uhr UTC

Mitglieder, die in Hengsen-Opherdicke fliegen

Flugwetter am Flugplatz Hengsen-Opherdicke

Die METAR Information stammen aus EDLW (5.57 km entfernt).

METAR Code:
2021/10/20 10:50
EDLW 201050Z 19017G27KT 9999 -DZ FEW032 17/11 Q1005

Flugschulen am Flugplatz Hengsen-Opherdicke

Am Flugplatz Hengsen-Opherdicke gibt es leider keine Flugschule.

Benachbarte Flugplätze und Flugschulen

Es gibt 25 weitere Flugplätze in einem Umkreis von 50 km um den Flugplatz Hengsen-Opherdicke.

Jetzt anmelden

Passwort vergessen

Umfrage Archiv

Welche Navigations-App nutzt Ihr im Cockpit

SkyDemon
45.5 %
VFRnav
27.3 %
Ich nutze eine andere App
22.7 %
EasyVFR
4.5 %
ForeFlight
0 %
Ich nutze gar keine App
0 %
Stimmen: 22 | Diskussion
Anzeige: Roland Aircraft
Statistik Alle Mitglieder

Aktuell sind 35 Besucher online, davon 1 Mitglied und 34 Gäste.


Mitglieder online:
Tom971 

Anzeige: VFR Sprechfunk Simulator Anzeige: Pocket FMS